createdAt,value
2018-01-19T00:00:57.652Z,71.50
2018-01-19T00:03:26.019Z,71.80
2018-01-19T00:05:53.610Z,71.70
2018-01-19T00:08:21.989Z,72.00
2018-01-19T00:10:50.347Z,71.90
2018-01-19T00:13:17.963Z,71.90
2018-01-19T00:15:45.553Z,72.20
2018-01-19T00:18:13.155Z,72.00
2018-01-19T00:20:41.529Z,72.20
2018-01-19T00:23:09.105Z,72.20
2018-01-19T00:25:37.526Z,72.40
2018-01-19T00:28:05.126Z,72.30
2018-01-19T00:30:32.721Z,72.40
2018-01-19T00:33:01.078Z,72.40
2018-01-19T00:35:29.566Z,72.30
2018-01-19T00:37:57.935Z,72.40
2018-01-19T00:40:25.529Z,72.30
2018-01-19T00:42:53.132Z,72.50
2018-01-19T00:45:20.715Z,72.60
2018-01-19T00:47:48.757Z,72.50
2018-01-19T00:50:17.105Z,72.70
2018-01-19T00:52:45.449Z,72.80
2018-01-19T00:55:13.061Z,72.80
2018-01-19T00:57:41.386Z,72.60
2018-01-19T01:00:09.000Z,72.50
2018-01-19T01:02:38.106Z,72.00
2018-01-19T01:05:06.024Z,72.00
2018-01-19T01:07:33.619Z,72.00
2018-01-19T01:10:01.214Z,72.20
2018-01-19T01:12:28.821Z,72.20
2018-01-19T01:14:56.424Z,72.40
2018-01-19T01:17:24.037Z,72.60
2018-01-19T01:19:51.622Z,72.70
2018-01-19T01:22:19.365Z,72.80
2018-01-19T01:24:47.711Z,72.90
2018-01-19T01:27:15.298Z,72.80
2018-01-19T01:29:43.668Z,73.00
2018-01-19T01:32:11.251Z,72.80
2018-01-19T01:34:39.619Z,73.10
2018-01-19T01:37:07.212Z,73.10
2018-01-19T01:39:35.604Z,73.20
2018-01-19T01:42:03.200Z,73.10
2018-01-19T01:44:30.786Z,73.30
2018-01-19T01:46:58.430Z,73.40
2018-01-19T01:49:26.026Z,73.20
2018-01-19T01:51:53.654Z,73.10
2018-01-19T01:54:21.235Z,73.10
2018-01-19T01:56:48.828Z,73.20
2018-01-19T01:59:16.454Z,73.20
2018-01-19T02:01:44.035Z,73.70
2018-01-19T02:04:11.676Z,73.40
2018-01-19T02:06:39.253Z,73.70
2018-01-19T02:09:06.855Z,73.70
2018-01-19T02:11:34.477Z,73.80
2018-01-19T02:14:02.101Z,74.50
2018-01-19T02:16:30.446Z,73.70
2018-01-19T02:18:58.031Z,73.70
2018-01-19T02:21:26.665Z,73.90
2018-01-19T02:23:54.271Z,73.90
2018-01-19T02:26:21.971Z,74.00
2018-01-19T02:28:50.335Z,74.00
2018-01-19T02:31:18.006Z,74.00
2018-01-19T02:33:45.607Z,74.00
2018-01-19T02:36:13.213Z,74.10
2018-01-19T02:38:40.807Z,74.10
2018-01-19T02:41:08.465Z,74.20
2018-01-19T02:43:37.575Z,74.70
2018-01-19T02:46:05.934Z,74.90
2018-01-19T02:48:34.324Z,75.00
2018-01-19T02:51:01.913Z,75.00
2018-01-19T02:53:30.250Z,74.90
2018-01-19T02:55:57.870Z,74.90
2018-01-19T02:58:26.280Z,75.00
2018-01-19T03:00:53.874Z,74.90
2018-01-19T03:03:21.603Z,74.90
2018-01-19T03:05:49.210Z,75.00
2018-01-19T03:08:16.792Z,75.00
2018-01-19T03:10:45.446Z,74.80
2018-01-19T03:13:13.134Z,74.90
2018-01-19T03:15:40.722Z,74.90
2018-01-19T03:18:08.352Z,74.80
2018-01-19T03:20:35.970Z,75.00
2018-01-19T03:23:03.554Z,75.00
2018-01-19T03:25:31.144Z,75.00
2018-01-19T03:27:58.851Z,75.00
2018-01-19T03:30:27.226Z,75.20
2018-01-19T03:32:54.824Z,74.80
2018-01-19T03:35:23.370Z,74.90
2018-01-19T03:37:50.966Z,74.90
2018-01-19T03:40:19.309Z,74.60
2018-01-19T03:42:46.918Z,74.60
2018-01-19T03:45:15.265Z,74.60
2018-01-19T03:47:42.865Z,74.60
2018-01-19T03:50:11.209Z,74.80
2018-01-19T03:52:39.046Z,74.80
2018-01-19T03:55:06.631Z,74.80
2018-01-19T03:57:34.241Z,74.80
2018-01-19T04:00:02.597Z,75.10
2018-01-19T04:02:30.939Z,75.10
2018-01-19T04:04:59.483Z,75.00
2018-01-19T04:07:27.837Z,75.00
2018-01-19T04:09:55.450Z,75.00
2018-01-19T04:12:23.803Z,74.80
2018-01-19T04:14:52.473Z,74.70
2018-01-19T04:17:20.061Z,74.60
2018-01-19T04:19:47.671Z,74.60
2018-01-19T04:22:15.267Z,74.60
2018-01-19T04:24:42.855Z,74.40
2018-01-19T04:27:10.471Z,74.30
2018-01-19T04:29:38.179Z,74.30
2018-01-19T04:32:06.571Z,73.70
2018-01-19T04:34:35.668Z,73.60
2018-01-19T04:37:04.021Z,73.50
2018-01-19T04:39:31.630Z,73.60
2018-01-19T04:42:00.139Z,73.60
2018-01-19T04:44:27.742Z,73.50
2018-01-19T04:46:55.362Z,73.20
2018-01-19T04:49:23.732Z,73.30
2018-01-19T04:51:51.331Z,73.30
2018-01-19T04:54:18.926Z,73.10
2018-01-19T04:56:46.635Z,73.20
2018-01-19T04:59:15.007Z,73.40
2018-01-19T05:01:43.391Z,72.90
2018-01-19T05:04:10.996Z,73.20
2018-01-19T05:06:38.576Z,73.40
2018-01-19T05:09:06.204Z,73.10
2018-01-19T05:11:34.554Z,73.20
2018-01-19T05:14:02.492Z,73.20
2018-01-19T05:16:30.072Z,73.50
2018-01-19T05:18:57.666Z,73.40
2018-01-19T05:21:26.053Z,73.30
2018-01-19T05:23:55.152Z,73.30
2018-01-19T05:26:23.539Z,73.20
2018-01-19T05:28:51.129Z,73.10
2018-01-19T05:31:19.511Z,73.60
2018-01-19T05:33:47.870Z,73.60
2018-01-19T05:36:15.514Z,73.60
2018-01-19T05:38:43.123Z,74.30
2018-01-19T05:41:11.499Z,74.10
2018-01-19T05:43:39.879Z,74.30
2018-01-19T05:46:08.239Z,74.50
2018-01-19T05:48:35.849Z,74.40
2018-01-19T05:51:03.442Z,74.80
2018-01-19T05:53:31.044Z,75.10
2018-01-19T05:56:00.146Z,75.00
2018-01-19T05:58:27.847Z,75.00
2018-01-19T06:00:55.479Z,73.10
2018-01-19T06:03:23.087Z,72.80
2018-01-19T06:05:50.703Z,73.40
2018-01-19T06:08:18.296Z,73.00
2018-01-19T06:10:46.659Z,73.10
2018-01-19T06:13:14.259Z,73.10
2018-01-19T06:15:41.850Z,73.70
2018-01-19T06:18:09.465Z,73.60
2018-01-19T06:20:37.785Z,74.00
2018-01-19T06:23:05.427Z,74.00
2018-01-19T06:25:33.776Z,74.30
2018-01-19T06:28:02.887Z,74.40
2018-01-19T06:30:31.267Z,74.40
2018-01-19T06:32:58.893Z,74.40
2018-01-19T06:35:26.544Z,74.40
2018-01-19T06:37:54.147Z,74.50
2018-01-19T06:40:21.754Z,74.50
2018-01-19T06:42:50.124Z,74.60
2018-01-19T06:45:18.478Z,74.50
2018-01-19T06:47:46.097Z,74.50
2018-01-19T06:50:13.731Z,74.50
2018-01-19T06:52:41.486Z,74.50
2018-01-19T06:55:09.050Z,74.60
2018-01-19T06:57:36.642Z,74.60
2018-01-19T07:00:05.008Z,74.70
2018-01-19T07:02:33.383Z,74.50
2018-01-19T07:05:02.159Z,74.90
2018-01-19T07:07:29.768Z,74.30
2018-01-19T07:09:58.144Z,74.10
2018-01-19T07:12:26.583Z,74.00
2018-01-19T07:14:54.180Z,74.00
2018-01-19T07:17:22.586Z,74.10
2018-01-19T07:19:50.948Z,74.20
2018-01-19T07:22:19.388Z,74.20
2018-01-19T07:24:47.021Z,74.20
2018-01-19T07:27:15.380Z,74.50
2018-01-19T07:29:43.844Z,74.50
2018-01-19T07:32:11.462Z,74.50
2018-01-19T07:34:39.549Z,74.60
2018-01-19T07:37:07.143Z,74.60
2018-01-19T07:39:34.738Z,74.80
2018-01-19T07:42:04.041Z,74.90
2018-01-19T07:44:32.456Z,75.00
2018-01-19T07:47:00.799Z,75.00
2018-01-19T07:49:28.394Z,75.10
2018-01-19T07:51:56.777Z,74.80
2018-01-19T07:54:25.126Z,74.70
2018-01-19T07:56:54.145Z,74.70
2018-01-19T07:59:21.761Z,74.80
2018-01-19T08:01:49.345Z,74.40
2018-01-19T08:04:16.979Z,74.30
2018-01-19T08:06:44.558Z,74.10
2018-01-19T08:09:12.151Z,73.90
2018-01-19T08:11:39.767Z,73.80
2018-01-19T08:14:07.361Z,73.50
2018-01-19T08:16:34.971Z,72.90
2018-01-19T08:19:02.563Z,73.00
2018-01-19T08:21:30.244Z,73.50
2018-01-19T08:23:57.847Z,73.40
2018-01-19T08:26:25.435Z,73.20
2018-01-19T08:28:53.031Z,73.20
2018-01-19T08:31:20.635Z,73.10
2018-01-19T08:33:49.108Z,73.00
2018-01-19T08:36:16.703Z,73.10
2018-01-19T08:38:45.083Z,73.20
2018-01-19T08:41:14.213Z,73.30
2018-01-19T08:43:42.580Z,73.10
2018-01-19T08:46:11.233Z,73.00
2018-01-19T08:48:38.843Z,72.80
2018-01-19T08:51:07.216Z,72.90
2018-01-19T08:53:35.611Z,73.20
2018-01-19T08:56:03.986Z,72.30
2018-01-19T08:58:32.714Z,72.20
2018-01-19T09:01:00.319Z,72.10
2018-01-19T09:03:27.941Z,71.90
2018-01-19T09:05:55.568Z,71.40
2018-01-19T09:08:23.160Z,71.30
2018-01-19T09:10:51.737Z,71.10
2018-01-19T09:13:20.086Z,71.10
2018-01-19T09:15:49.264Z,70.80
2018-01-19T09:18:16.870Z,70.80
2018-01-19T09:20:44.468Z,70.30
2018-01-19T09:23:12.080Z,70.40
2018-01-19T09:25:39.658Z,70.60
2018-01-19T09:28:07.589Z,70.40
2018-01-19T09:30:35.192Z,69.50
2018-01-19T09:33:02.774Z,69.10
2018-01-19T09:35:30.382Z,69.50
2018-01-19T09:37:57.965Z,70.10
2018-01-19T09:40:25.708Z,69.40
2018-01-19T09:42:53.338Z,69.80
2018-01-19T09:45:20.948Z,69.50
2018-01-19T09:47:48.572Z,69.60
2018-01-19T09:50:16.166Z,69.40
2018-01-19T09:52:43.821Z,70.10
2018-01-19T09:55:12.185Z,69.20
2018-01-19T09:57:40.050Z,69.20
2018-01-19T10:00:07.637Z,69.10
2018-01-19T10:02:36.003Z,68.70
2018-01-19T10:05:03.602Z,68.70
2018-01-19T10:07:31.200Z,68.00
2018-01-19T10:09:58.817Z,66.70
2018-01-19T10:12:27.157Z,67.40
2018-01-19T10:14:54.961Z,67.40
2018-01-19T10:17:23.331Z,67.10
2018-01-19T10:19:50.946Z,67.10
2018-01-19T10:22:18.563Z,67.60
2018-01-19T10:24:46.195Z,67.40
2018-01-19T10:27:13.835Z,68.00
2018-01-19T10:29:41.461Z,67.10
2018-01-19T10:32:09.055Z,66.40
2018-01-19T10:34:36.681Z,65.60
2018-01-19T10:37:04.351Z,66.20
2018-01-19T10:39:33.492Z,66.30
2018-01-19T10:42:01.097Z,66.20
2018-01-19T10:44:28.710Z,66.20
2018-01-19T10:46:57.073Z,65.70
2018-01-19T10:49:24.677Z,65.60
2018-01-19T10:51:52.300Z,66.70
2018-01-19T10:54:20.671Z,66.00
2018-01-19T10:56:48.308Z,66.00
2018-01-19T10:59:15.913Z,65.40
2018-01-19T11:01:43.524Z,66.20
2018-01-19T11:04:11.126Z,64.30
2018-01-19T11:06:38.752Z,63.40
2018-01-19T11:09:06.365Z,60.90
2018-01-19T11:11:33.959Z,59.30
2018-01-19T11:14:02.366Z,56.90
2018-01-19T11:16:29.964Z,56.90
2018-01-19T11:18:57.570Z,55.60
2018-01-19T11:21:26.106Z,55.40
2018-01-19T11:23:53.714Z,55.10
2018-01-19T11:26:21.300Z,55.50
2018-01-19T11:28:49.718Z,56.40
2018-01-19T11:31:17.295Z,56.30
2018-01-19T11:33:44.891Z,56.40
2018-01-19T11:36:13.482Z,54.50
2018-01-19T11:38:41.089Z,54.60
2018-01-19T11:41:08.716Z,54.00
2018-01-19T11:43:36.303Z,56.70
2018-01-19T11:46:04.834Z,55.20
2018-01-19T11:48:32.450Z,55.20
2018-01-19T11:51:00.815Z,55.50
2018-01-19T11:53:29.192Z,56.50
2018-01-19T11:55:56.783Z,56.40
2018-01-19T11:58:25.141Z,57.60
2018-01-19T12:00:53.540Z,55.10
2018-01-19T12:03:21.895Z,56.20
2018-01-19T12:05:51.256Z,57.00
2018-01-19T12:08:18.845Z,57.00
2018-01-19T12:10:46.469Z,54.90
2018-01-19T12:13:14.855Z,53.50
2018-01-19T12:15:43.225Z,54.60
2018-01-19T12:18:11.608Z,53.00
2018-01-19T12:20:39.957Z,53.30
2018-01-19T12:23:07.583Z,53.30
2018-01-19T12:25:35.167Z,53.80
2018-01-19T12:28:02.811Z,54.00
2018-01-19T12:30:30.411Z,55.30
2018-01-19T12:32:58.018Z,54.70
2018-01-19T12:35:26.387Z,56.10
2018-01-19T12:37:53.966Z,56.10
2018-01-19T12:40:22.361Z,57.60
2018-01-19T12:42:50.720Z,57.30
2018-01-19T12:45:18.318Z,57.30
2018-01-19T12:47:45.930Z,58.60
2018-01-19T12:50:13.568Z,57.10
2018-01-19T12:52:41.218Z,54.00
2018-01-19T12:55:08.824Z,51.60
2018-01-19T12:57:36.465Z,50.80
2018-01-19T13:00:04.124Z,49.40
2018-01-19T13:02:31.743Z,46.90
2018-01-19T13:04:59.352Z,48.50
2018-01-19T13:07:26.962Z,47.50
2018-01-19T13:09:54.582Z,47.20
2018-01-19T13:12:22.253Z,48.70
2018-01-19T13:14:49.880Z,49.00
2018-01-19T13:17:17.482Z,51.10
2018-01-19T13:19:45.106Z,51.80
2018-01-19T13:22:13.647Z,54.10
2018-01-19T13:24:41.628Z,54.10
2018-01-19T13:27:09.264Z,54.50
2018-01-19T13:29:36.881Z,54.50
2018-01-19T13:32:05.306Z,54.90
2018-01-19T13:34:33.713Z,54.30
2018-01-19T13:37:01.570Z,54.30
2018-01-19T13:39:29.215Z,54.60
2018-01-19T13:41:56.823Z,54.30
2018-01-19T13:44:24.465Z,54.50
2018-01-19T13:46:52.887Z,57.50
2018-01-19T13:49:20.559Z,57.50
2018-01-19T13:51:48.184Z,59.10
2018-01-19T13:54:15.789Z,59.20
2018-01-19T13:56:43.399Z,59.80
2018-01-19T13:59:11.907Z,60.10
2018-01-19T14:01:39.600Z,60.10
2018-01-19T14:04:07.191Z,60.60
2018-01-19T14:06:34.808Z,61.10
2018-01-19T14:09:02.424Z,61.20
2018-01-19T14:11:31.538Z,63.90
2018-01-19T14:13:59.161Z,63.90
2018-01-19T14:16:26.768Z,62.10
2018-01-19T14:18:54.388Z,61.40
2018-01-19T14:21:23.750Z,61.80
2018-01-19T14:23:52.162Z,61.90
2018-01-19T14:26:19.767Z,61.90
2018-01-19T14:28:47.372Z,61.80
2018-01-19T14:31:15.048Z,62.40
2018-01-19T14:33:42.658Z,62.60
2018-01-19T14:36:10.283Z,63.40
2018-01-19T14:38:37.951Z,63.80
2018-01-19T14:41:05.562Z,64.00
2018-01-19T14:43:33.178Z,64.20
2018-01-19T14:46:01.540Z,64.80
2018-01-19T14:48:29.152Z,64.70
2018-01-19T14:50:56.764Z,65.20
2018-01-19T14:53:25.180Z,64.80
2018-01-19T14:55:52.793Z,64.80
2018-01-19T14:58:20.428Z,64.80
2018-01-19T15:00:48.071Z,64.80
2018-01-19T15:03:16.424Z,65.30
2018-01-19T15:05:44.836Z,65.80
2018-01-19T15:08:13.227Z,65.80
2018-01-19T15:10:40.861Z,65.80
2018-01-19T15:13:08.472Z,65.70
2018-01-19T15:15:36.059Z,65.30
2018-01-19T15:18:03.866Z,65.10
2018-01-19T15:20:31.481Z,65.10
2018-01-19T15:22:59.116Z,65.20
2018-01-19T15:25:27.551Z,65.50
2018-01-19T15:27:55.183Z,65.40
2018-01-19T15:30:22.773Z,65.20
2018-01-19T15:32:50.379Z,65.00
2018-01-19T15:35:18.019Z,65.30
2018-01-19T15:37:45.627Z,65.70
2018-01-19T15:40:13.257Z,66.10
2018-01-19T15:42:40.995Z,66.70
2018-01-19T15:45:08.627Z,67.20
2018-01-19T15:47:36.305Z,67.60
2018-01-19T15:50:04.867Z,68.20
2018-01-19T15:52:32.542Z,68.10
2018-01-19T15:55:00.928Z,68.60
2018-01-19T15:57:29.374Z,68.70
2018-01-19T15:59:57.057Z,68.70
2018-01-19T16:02:24.767Z,68.90
2018-01-19T16:04:52.444Z,68.80
2018-01-19T16:07:20.057Z,68.70
2018-01-19T16:09:47.774Z,68.80
2018-01-19T16:12:15.410Z,68.80
2018-01-19T16:14:43.042Z,68.80
2018-01-19T16:17:10.666Z,69.00
2018-01-19T16:19:38.286Z,68.90
2018-01-19T16:22:05.921Z,68.80
2018-01-19T16:24:33.582Z,68.70
2018-01-19T16:27:01.263Z,68.80
2018-01-19T16:29:28.873Z,69.10
2018-01-19T16:31:57.335Z,69.50
2018-01-19T16:34:24.956Z,69.40
2018-01-19T16:36:52.665Z,69.50
2018-01-19T16:39:21.206Z,69.20
2018-01-19T16:41:49.084Z,69.30
2018-01-19T16:44:16.768Z,69.00
2018-01-19T16:46:44.427Z,68.60
2018-01-19T16:49:12.099Z,68.00
2018-01-19T16:51:39.738Z,68.20
2018-01-19T16:54:08.140Z,68.40
2018-01-19T16:56:35.810Z,68.40
2018-01-19T16:59:03.480Z,68.60
2018-01-19T17:01:31.183Z,68.80
2018-01-19T17:03:58.804Z,68.80
2018-01-19T17:06:26.428Z,68.80
2018-01-19T17:08:54.040Z,68.80
2018-01-19T17:11:21.670Z,68.80
2018-01-19T17:13:50.176Z,69.20
2018-01-19T17:16:17.800Z,69.20
2018-01-19T17:18:45.451Z,69.50
2018-01-19T17:21:13.064Z,70.10
2018-01-19T17:23:41.579Z,69.80
2018-01-19T17:26:09.215Z,69.70
2018-01-19T17:28:37.789Z,70.30
2018-01-19T17:31:05.394Z,70.20
2018-01-19T17:33:33.023Z,70.60
2018-01-19T17:36:00.650Z,70.60
2018-01-19T17:38:28.253Z,70.50
2018-01-19T17:40:55.922Z,70.60
2018-01-19T17:43:24.368Z,70.60
2018-01-19T17:45:52.329Z,70.50
2018-01-19T17:48:19.974Z,70.50
2018-01-19T17:50:47.587Z,70.50
2018-01-19T17:53:15.229Z,70.80
2018-01-19T17:55:42.938Z,71.10
2018-01-19T17:58:11.329Z,71.20
2018-01-19T18:00:39.743Z,71.10
2018-01-19T18:03:07.516Z,71.10
2018-01-19T18:05:35.111Z,71.30
2018-01-19T18:08:02.951Z,71.10
2018-01-19T18:10:31.164Z,71.10
2018-01-19T18:12:58.815Z,71.30
2018-01-19T18:15:26.876Z,71.30
2018-01-19T18:17:54.539Z,71.30
2018-01-19T18:20:22.143Z,71.40
2018-01-19T18:22:49.789Z,71.30
2018-01-19T18:25:17.421Z,71.10
2018-01-19T18:27:45.944Z,71.20
2018-01-19T18:30:13.663Z,71.10
2018-01-19T18:32:42.033Z,71.20
2018-01-19T18:35:09.700Z,71.10
2018-01-19T18:37:37.318Z,71.10
2018-01-19T18:40:06.535Z,71.10
2018-01-19T18:42:34.202Z,71.00
2018-01-19T18:45:01.863Z,71.20
2018-01-19T18:47:31.362Z,70.90
2018-01-19T18:49:59.403Z,70.90
2018-01-19T18:52:27.807Z,70.80
2018-01-19T18:54:55.488Z,70.80
2018-01-19T18:57:23.200Z,70.70
2018-01-19T18:59:51.708Z,70.40
2018-01-19T19:02:20.507Z,70.10
2018-01-19T19:04:48.203Z,70.10
2018-01-19T19:07:15.937Z,69.70
2018-01-19T19:09:43.670Z,69.40
2018-01-19T19:12:12.128Z,69.00
2018-01-19T19:14:39.854Z,68.90
2018-01-19T19:17:07.578Z,68.70
2018-01-19T19:19:35.416Z,69.40
2018-01-19T19:22:03.159Z,68.80
2018-01-19T19:24:31.611Z,68.60
2018-01-19T19:26:59.413Z,68.60
2018-01-19T19:29:27.862Z,68.50
2018-01-19T19:31:55.576Z,68.50
2018-01-19T19:34:24.396Z,68.40
2018-01-19T19:36:52.082Z,68.20
2018-01-19T19:39:19.839Z,68.00
2018-01-19T19:41:48.521Z,67.70
2018-01-19T19:44:16.249Z,67.50
2018-01-19T19:46:43.963Z,67.50
2018-01-19T19:49:11.655Z,67.60
2018-01-19T19:51:39.316Z,67.70
2018-01-19T19:54:07.071Z,67.80
2018-01-19T19:56:34.764Z,67.70
2018-01-19T19:59:03.206Z,68.00
2018-01-19T20:01:30.925Z,67.40
2018-01-19T20:03:59.362Z,67.10
2018-01-19T20:06:26.972Z,67.20
2018-01-19T20:08:56.160Z,66.40
2018-01-19T20:11:23.828Z,66.40
2018-01-19T20:13:51.571Z,66.20
2018-01-19T20:16:19.293Z,66.10
2018-01-19T20:18:47.737Z,65.70
2018-01-19T20:21:16.359Z,65.70
2018-01-19T20:23:44.815Z,65.00
2018-01-19T20:26:12.613Z,65.00
2018-01-19T20:28:41.080Z,64.80
2018-01-19T20:31:08.770Z,64.70
2018-01-19T20:33:37.284Z,64.40
2018-01-19T20:36:05.023Z,64.40
2018-01-19T20:38:32.685Z,64.10
2018-01-19T20:41:00.403Z,63.70
2018-01-19T20:43:28.264Z,63.40
2018-01-19T20:45:55.953Z,63.00
2018-01-19T20:48:23.667Z,62.90
2018-01-19T20:50:53.114Z,61.60
2018-01-19T20:53:20.817Z,61.60
2018-01-19T20:55:48.521Z,61.70
2018-01-19T20:58:16.941Z,61.20
2018-01-19T21:00:45.402Z,61.20
2018-01-19T21:03:13.095Z,60.30
2018-01-19T21:05:41.028Z,60.30
2018-01-19T21:08:10.365Z,59.80
2018-01-19T21:10:38.690Z,59.80
2018-01-19T21:13:07.234Z,60.10
2018-01-19T21:15:35.018Z,60.40
2018-01-19T21:18:02.948Z,60.80
2018-01-19T21:20:31.569Z,62.00
2018-01-19T21:22:59.232Z,63.10
2018-01-19T21:25:27.098Z,64.00
2018-01-19T21:27:54.801Z,64.90
2018-01-19T21:30:22.513Z,65.20
2018-01-19T21:32:50.235Z,65.60
2018-01-19T21:35:17.940Z,65.30
2018-01-19T21:37:45.647Z,65.50
2018-01-19T21:40:13.395Z,65.20
2018-01-19T21:42:41.086Z,65.10
2018-01-19T21:45:08.781Z,64.90
2018-01-19T21:47:37.584Z,64.80
2018-01-19T21:50:06.056Z,64.70
2018-01-19T21:52:33.765Z,64.80
2018-01-19T21:55:02.143Z,64.60
2018-01-19T21:57:29.764Z,64.60
2018-01-19T21:59:57.507Z,65.00
2018-01-19T22:02:25.139Z,65.70
2018-01-19T22:04:53.562Z,65.50
2018-01-19T22:07:21.212Z,65.50
2018-01-19T22:09:48.982Z,65.80
2018-01-19T22:12:16.637Z,65.70
2018-01-19T22:14:45.842Z,66.00
2018-01-19T22:17:13.464Z,66.00
2018-01-19T22:19:41.121Z,66.00
2018-01-19T22:22:09.404Z,66.30
2018-01-19T22:24:37.867Z,67.50
2018-01-19T22:27:05.508Z,67.00
2018-01-19T22:29:33.920Z,67.00
2018-01-19T22:32:01.585Z,67.00
2018-01-19T22:34:29.343Z,67.00
2018-01-19T22:36:56.996Z,67.00
2018-01-19T22:39:24.997Z,66.90
2018-01-19T22:41:52.728Z,66.70
2018-01-19T22:44:21.079Z,66.00
2018-01-19T22:46:48.708Z,66.50
2018-01-19T22:49:16.336Z,66.00
2018-01-19T22:51:44.731Z,65.10
2018-01-19T22:54:12.363Z,64.90
2018-01-19T22:56:39.969Z,63.50
2018-01-19T22:59:08.357Z,61.10
2018-01-19T23:01:35.971Z,61.10
2018-01-19T23:04:03.591Z,60.90
2018-01-19T23:06:31.199Z,61.50
2018-01-19T23:08:59.039Z,62.70
2018-01-19T23:11:26.778Z,63.10
2018-01-19T23:13:55.137Z,62.70
2018-01-19T23:16:22.809Z,62.70
2018-01-19T23:18:50.448Z,62.80
2018-01-19T23:21:18.387Z,63.10
2018-01-19T23:23:45.978Z,63.20
2018-01-19T23:26:13.623Z,63.70
2018-01-19T23:28:41.266Z,64.50
2018-01-19T23:31:09.640Z,64.50
2018-01-19T23:33:37.262Z,64.40
2018-01-19T23:36:04.875Z,64.50
2018-01-19T23:38:32.804Z,64.90
2018-01-19T23:41:00.405Z,64.90
2018-01-19T23:43:28.757Z,65.20
2018-01-19T23:45:56.372Z,65.30
2018-01-19T23:48:24.734Z,65.20
2018-01-19T23:50:53.386Z,64.80
2018-01-19T23:53:20.988Z,64.80
2018-01-19T23:55:50.099Z,65.20
2018-01-19T23:58:18.475Z,65.70
